Time;durP1;ratioP1;P1;durP2;ratioP2;P2;SDS_P1;SDS_P2;PMS_P1;PMS_P2;Temp;Humidity;BMP_temperature;BMP_pressure;BME280_temperature;BME280_humidity;BME280_pressure;Samples;Min_cycle;Max_cycle;Signal;HPM_P1;HPM_P2
2023/03/03 00:01:45;;;;;;;;;;;;;;;3.04;100.00;100081.66;5048864;28;20011;-73
2023/03/03 00:04:11;;;;;;;;;;;;;;;3.43;100.00;100092.44;5055451;28;19927;-73
2023/03/03 00:06:36;;;;;;;;;;;;;;;3.56;100.00;100091.78;5051782;28;19924;-73
2023/03/03 00:09:01;;;;;;;;;;;;;;;3.01;100.00;100078.19;5049523;28;20020;-73
2023/03/03 00:11:26;;;;;;;;;;;;;;;3.21;100.00;100098.88;5045539;28;19995;-73
2023/03/03 00:13:53;;;;;;;;;;;;;;;3.12;100.00;100097.03;5053262;28;21497;-73
2023/03/03 00:16:29;;;;;;;;;;;;;;;2.41;100.00;100095.84;5046834;28;19921;-73
2023/03/03 00:18:55;;;;;;;;;;;;;;;3.48;100.00;100116.25;5052173;28;19917;-73
2023/03/03 00:21:28;;;;;;;;;;;;;;;3.56;100.00;100124.88;5048920;28;19921;-74
2023/03/03 00:23:54;;;;;;;;;;;;;;;3.75;100.00;100131.94;5046888;28;19921;-73
2023/03/03 00:26:25;;;;;;;;;;;;;;;3.42;100.00;100127.22;5038543;28;19920;-73
2023/03/03 00:28:51;;;;;;;;;;;;;;;3.35;100.00;100120.31;5047549;28;20001;-73
2023/03/03 00:31:17;;;;;;;;;;;;;;;3.31;100.00;100105.84;5047211;28;19917;-73
2023/03/03 00:33:45;;;;;;;;;;;;;;;3.44;100.00;100119.59;5051277;28;20618;-73
2023/03/03 00:36:10;;;;;;;;;;;;;;;2.69;100.00;100093.78;5045228;28;19928;-73
2023/03/03 00:38:35;;;;;;;;;;;;;;;2.64;100.00;100097.94;5048189;28;20107;-73
2023/03/03 00:41:01;;;;;;;;;;;;;;;2.83;100.00;100115.25;5048191;28;20291;-73
2023/03/03 00:43:28;;;;;;;;;;;;;;;2.34;100.00;100108.41;5050126;28;19920;-73
2023/03/03 00:45:57;;;;;;;;;;;;;;;3.51;100.00;100150.28;5054783;28;19927;-73
2023/03/03 00:48:26;;;;;;;;;;;;;;;4.49;100.00;100178.75;5044294;28;19921;-73
2023/03/03 00:50:56;;;;;;;;;;;;;;;2.93;100.00;100117.09;5056050;28;19927;-73
2023/03/03 00:53:22;;;;;;;;;;;;;;;3.28;100.00;100137.16;5051496;28;19931;-73
2023/03/03 00:55:47;;;;;;;;;;;;;;;2.76;100.00;100123.59;5042060;28;19924;-73
2023/03/03 00:58:13;;;;;;;;;;;;;;;3.66;100.00;100146.25;5052207;28;19924;-73
2023/03/03 01:00:38;;;;;;;;;;;;;;;4.25;100.00;100152.97;5045906;28;20271;-73
2023/03/03 01:03:05;;;;;;;;;;;;;;;2.72;100.00;100086.22;5056181;28;19960;-73
2023/03/03 01:05:30;;;;;;;;;;;;;;;3.54;100.00;100116.38;5051420;28;19927;-73
2023/03/03 01:07:55;;;;;;;;;;;;;;;2.73;100.00;100091.31;5054500;28;19920;-73
2023/03/03 01:10:21;;;;;;;;;;;;;;;2.85;100.00;100123.78;5050936;28;19999;-72
2023/03/03 01:12:46;;;;;;;;;;;;;;;3.63;100.00;100143.66;5056506;28;20011;-73
2023/03/03 01:15:12;;;;;;;;;;;;;;;3.69;100.00;100131.84;5054221;28;20030;-73
2023/03/03 01:17:38;;;;;;;;;;;;;;;3.93;100.00;100133.88;5055199;28;19921;-73
2023/03/03 01:20:04;;;;;;;;;;;;;;;3.29;100.00;100099.88;5056804;28;19977;-73
2023/03/03 01:22:29;;;;;;;;;;;;;;;3.26;100.00;100099.78;5050004;28;19928;-73
2023/03/03 01:24:54;;;;;;;;;;;;;;;3.30;100.00;100092.22;5052787;28;21011;-73
2023/03/03 01:27:19;;;;;;;;;;;;;;;3.31;100.00;100083.78;5048501;28;19917;-73
2023/03/03 01:29:45;;;;;;;;;;;;;;;2.63;100.00;100060.63;5050438;28;19931;-73
2023/03/03 01:32:10;;;;;;;;;;;;;;;3.73;100.00;100087.75;5060338;28;19920;-73
2023/03/03 01:34:35;;;;;;;;;;;;;;;3.19;100.00;100070.84;5051930;28;19916;-73
2023/03/03 01:37:00;;;;;;;;;;;;;;;4.03;100.00;100093.22;5055158;28;19921;-73
2023/03/03 01:39:26;;;;;;;;;;;;;;;4.67;100.00;100095.59;5051736;28;20054;-73
2023/03/03 01:41:51;;;;;;;;;;;;;;;3.66;100.00;100059.63;5052431;28;20019;-73
2023/03/03 01:44:16;;;;;;;;;;;;;;;3.84;100.00;100057.31;5057124;28;19916;-73
2023/03/03 01:46:44;;;;;;;;;;;;;;;4.46;100.00;100056.28;5035725;28;19921;-73
2023/03/03 01:49:11;;;;;;;;;;;;;;;4.24;100.00;100037.34;5053258;28;19932;-73
2023/03/03 01:51:47;;;;;;;;;;;;;;;4.16;100.00;100024.53;5051389;28;19927;-74
2023/03/03 01:54:14;;;;;;;;;;;;;;;4.10;100.00;100006.63;5044941;28;19954;-73
2023/03/03 01:56:40;;;;;;;;;;;;;;;3.83;100.00;99996.13;5059718;28;20436;-73
2023/03/03 01:59:06;;;;;;;;;;;;;;;3.08;100.00;99970.56;5053024;28;19920;-73
2023/03/03 02:01:32;;;;;;;;;;;;;;;4.94;100.00;99998.84;5048384;28;20605;-73
2023/03/03 02:03:57;;;;;;;;;;;;;;;4.78;100.00;99966.41;5051620;28;19944;-73
2023/03/03 02:06:23;;;;;;;;;;;;;;;4.39;100.00;99939.75;5053746;28;19921;-74
2023/03/03 02:08:58;;;;;;;;;;;;;;;4.48;100.00;99931.31;5030734;28;19944;-73
2023/03/03 02:11:23;;;;;;;;;;;;;;;4.78;100.00;99944.28;5046490;28;19925;-73
2023/03/03 02:13:48;;;;;;;;;;;;;;;4.48;100.00;99947.47;5051656;28;19994;-73
2023/03/03 02:16:13;;;;;;;;;;;;;;;3.04;100.00;99920.50;5055877;28;19924;-73
2023/03/03 02:18:39;;;;;;;;;;;;;;;3.19;100.00;99937.63;5053013;28;19916;-73
2023/03/03 02:21:06;;;;;;;;;;;;;;;3.09;100.00;99964.66;5053068;28;19931;-73
2023/03/03 02:23:50;;;;;;;;;;;;;;;3.62;100.00;99981.47;5052276;28;19924;-73
2023/03/03 02:26:21;;;;;;;;;;;;;;;3.21;100.00;99990.28;5050264;28;20015;-74
2023/03/03 02:28:46;;;;;;;;;;;;;;;2.51;100.00;99980.78;5047752;28;19935;-73
2023/03/03 02:31:14;;;;;;;;;;;;;;;2.72;100.00;99989.56;5048957;28;19917;-73
2023/03/03 02:33:40;;;;;;;;;;;;;;;2.41;100.00;100004.31;5049333;28;19952;-73
2023/03/03 02:36:05;;;;;;;;;;;;;;;3.13;100.00;100028.34;5050740;28;20287;-73
2023/03/03 02:38:30;;;;;;;;;;;;;;;2.59;100.00;100033.44;5050661;28;19920;-73
2023/03/03 02:40:56;;;;;;;;;;;;;;;2.68;100.00;100054.78;5048668;28;20326;-73
2023/03/03 02:43:21;;;;;;;;;;;;;;;3.38;100.00;100071.16;5048743;28;19986;-73
2023/03/03 02:45:46;;;;;;;;;;;;;;;3.57;100.00;100070.53;5051148;28;19974;-74
2023/03/03 02:48:12;;;;;;;;;;;;;;;3.61;100.00;100067.22;5056746;28;19921;-73
2023/03/03 02:50:37;;;;;;;;;;;;;;;3.16;100.00;100032.63;5058770;28;20031;-73
2023/03/03 02:53:02;;;;;;;;;;;;;;;3.23;100.00;100036.97;5054091;28;20386;-73
2023/03/03 02:55:27;;;;;;;;;;;;;;;3.43;100.00;100038.97;5049608;28;19924;-73
2023/03/03 02:57:53;;;;;;;;;;;;;;;3.39;100.00;100055.03;5053935;28;19959;-73
2023/03/03 03:00:18;;;;;;;;;;;;;;;3.45;100.00;100060.22;5052432;28;19916;-73
2023/03/03 03:02:43;;;;;;;;;;;;;;;3.43;100.00;100056.78;5054055;28;19943;-73
2023/03/03 03:05:08;;;;;;;;;;;;;;;2.19;100.00;100018.34;5049099;28;19917;-73
2023/03/03 03:07:34;;;;;;;;;;;;;;;3.15;100.00;100058.94;5048690;28;19970;-73
2023/03/03 03:09:59;;;;;;;;;;;;;;;3.50;100.00;100064.50;5050299;28;19966;-73
2023/03/03 03:12:24;;;;;;;;;;;;;;;2.74;100.00;100043.88;5053728;28;20442;-73
2023/03/03 03:14:49;;;;;;;;;;;;;;;2.79;100.00;100062.59;5052086;28;19921;-73
2023/03/03 03:17:14;;;;;;;;;;;;;;;3.07;100.00;100083.41;5052277;28;19928;-73
2023/03/03 03:19:40;;;;;;;;;;;;;;;3.30;100.00;100092.22;5054538;28;19920;-73
2023/03/03 03:22:05;;;;;;;;;;;;;;;4.01;100.00;100107.63;5051618;28;20588;-73
2023/03/03 03:24:30;;;;;;;;;;;;;;;2.90;100.00;100066.19;5052537;28;20016;-74
2023/03/03 03:26:55;;;;;;;;;;;;;;;3.59;100.00;100073.97;5055871;28;20023;-73
2023/03/03 03:29:21;;;;;;;;;;;;;;;4.17;100.00;100099.31;5053037;28;20003;-73
2023/03/03 03:31:46;;;;;;;;;;;;;;;2.39;100.00;100046.66;5049019;28;20024;-73
2023/03/03 03:34:11;;;;;;;;;;;;;;;3.09;100.00;100086.81;5052738;28;19916;-73
2023/03/03 03:36:38;;;;;;;;;;;;;;;2.63;100.00;100086.91;5046040;28;19928;-73
2023/03/03 03:39:05;;;;;;;;;;;;;;;1.83;100.00;100084.53;5055535;28;20621;-73
2023/03/03 03:41:30;;;;;;;;;;;;;;;1.79;100.00;100110.69;5049726;28;19920;-73
2023/03/03 03:43:56;;;;;;;;;;;;;;;2.38;100.00;100136.47;5048561;28;19929;-73
2023/03/03 03:46:21;;;;;;;;;;;;;;;3.42;100.00;100173.06;5049830;28;19917;-73
2023/03/03 03:48:46;;;;;;;;;;;;;;;3.18;100.00;100157.38;5052244;28;19939;-72
2023/03/03 03:51:11;;;;;;;;;;;;;;;1.92;100.00;100135.53;5050143;28;19917;-73
2023/03/03 03:53:36;;;;;;;;;;;;;;;2.57;100.00;100158.00;5053235;28;19916;-73
2023/03/03 03:56:02;;;;;;;;;;;;;;;3.29;100.00;100177.09;5048346;28;19967;-73
2023/03/03 03:58:27;;;;;;;;;;;;;;;3.96;100.00;100191.69;5044833;28;20264;-73
2023/03/03 04:00:52;;;;;;;;;;;;;;;3.85;100.00;100168.56;5049641;28;20011;-73
2023/03/03 04:03:17;;;;;;;;;;;;;;;3.66;100.00;100131.81;5049910;28;19995;-73
2023/03/03 04:05:43;;;;;;;;;;;;;;;3.23;100.00;100120.97;5049234;28;19939;-73
2023/03/03 04:08:08;;;;;;;;;;;;;;;4.18;100.00;100137.59;5054780;28;20306;-73
2023/03/03 04:10:33;;;;;;;;;;;;;;;4.25;100.00;100133.41;5047248;28;19920;-73
2023/03/03 04:12:59;;;;;;;;;;;;;;;3.00;100.00;100081.59;5051815;28;19921;-73
2023/03/03 04:15:24;;;;;;;;;;;;;;;2.81;100.00;100088.91;5057237;28;19924;-73
2023/03/03 04:17:49;;;;;;;;;;;;;;;3.08;100.00;100101.25;5049079;28;19921;-73
2023/03/03 04:20:14;;;;;;;;;;;;;;;2.91;100.00;100113.66;5054919;28;20525;-73
2023/03/03 04:22:40;;;;;;;;;;;;;;;2.84;100.00;100116.09;5054408;28;20279;-73
2023/03/03 04:25:06;;;;;;;;;;;;;;;2.69;100.00;100126.84;5051674;28;19917;-73
2023/03/03 04:27:31;;;;;;;;;;;;;;;2.60;100.00;100136.84;5050859;28;20375;-73
2023/03/03 04:29:56;;;;;;;;;;;;;;;3.41;100.00;100165.38;5053776;28;19916;-74
2023/03/03 04:32:22;;;;;;;;;;;;;;;3.49;100.00;100164.69;5054390;28;20761;-73
2023/03/03 04:34:47;;;;;;;;;;;;;;;4.63;100.00;100178.03;5052299;28;20011;-73
2023/03/03 04:37:12;;;;;;;;;;;;;;;3.97;100.00;100127.13;5049980;28;20016;-73
2023/03/03 04:39:37;;;;;;;;;;;;;;;4.22;100.00;100115.56;5052686;28;19920;-73
2023/03/03 04:42:03;;;;;;;;;;;;;;;4.37;100.00;100079.16;5058421;28;19921;-73
2023/03/03 04:44:28;;;;;;;;;;;;;;;5.10;100.00;100090.88;5054494;28;19959;-73
2023/03/03 04:46:53;;;;;;;;;;;;;;;4.57;100.00;100054.69;5054057;28;20595;-72
2023/03/03 04:49:18;;;;;;;;;;;;;;;4.22;100.00;100027.97;5055170;28;19916;-72
2023/03/03 04:51:43;;;;;;;;;;;;;;;4.26;100.00;100017.84;5051493;28;19955;-72
2023/03/03 04:54:09;;;;;;;;;;;;;;;4.44;100.00;100014.59;5056113;28;19917;-73
2023/03/03 04:56:34;;;;;;;;;;;;;;;5.63;100.00;100027.34;5051406;28;20405;-72
2023/03/03 04:58:59;;;;;;;;;;;;;;;4.70;100.00;99984.22;5057774;28;19913;-72
2023/03/03 05:01:24;;;;;;;;;;;;;;;5.80;100.00;99994.19;5055432;28;19974;-75
2023/03/03 05:03:50;;;;;;;;;;;;;;;4.28;100.00;99943.91;5055494;28;19947;-75
2023/03/03 05:06:17;;;;;;;;;;;;;;;4.70;100.00;99955.28;5055272;28;19986;-73
2023/03/03 05:08:42;;;;;;;;;;;;;;;5.95;100.00;99966.97;5054341;28;20299;-72
2023/03/03 05:11:08;;;;;;;;;;;;;;;5.23;100.00;99940.28;5051059;28;19932;-73
2023/03/03 05:13:33;;;;;;;;;;;;;;;4.15;100.00;99915.78;5048472;28;19931;-73
2023/03/03 05:15:58;;;;;;;;;;;;;;;3.71;100.00;99922.97;5057096;28;20353;-74
2023/03/03 05:18:24;;;;;;;;;;;;;;;3.46;100.00;99942.22;5057510;28;19947;-73
2023/03/03 05:20:49;;;;;;;;;;;;;;;3.70;100.00;99972.22;5048686;28;20004;-73
2023/03/03 05:23:15;;;;;;;;;;;;;;;4.24;100.00;99982.97;5050530;28;19925;-74
2023/03/03 05:25:41;;;;;;;;;;;;;;;3.81;100.00;99979.97;5049953;28;19923;-74
2023/03/03 05:28:06;;;;;;;;;;;;;;;3.80;100.00;99976.56;5049748;28;19959;-74
2023/03/03 05:30:31;;;;;;;;;;;;;;;5.19;100.00;99999.84;5053716;28;19948;-74
2023/03/03 05:32:58;;;;;;;;;;;;;;;4.24;100.00;99972.75;5054171;28;19921;-73
2023/03/03 05:35:23;;;;;;;;;;;;;;;3.98;100.00;99965.72;5054202;28;19920;-74
2023/03/03 05:37:48;;;;;;;;;;;;;;;3.47;100.00;99969.41;5052940;28;19959;-74
2023/03/03 05:40:14;;;;;;;;;;;;;;;3.25;100.00;99971.66;5055473;28;19959;-73
2023/03/03 05:42:39;;;;;;;;;;;;;;;4.60;100.00;100010.50;5051722;28;19916;-73
2023/03/03 05:45:04;;;;;;;;;;;;;;;5.06;100.00;100010.84;5051340;28;19931;-73
2023/03/03 05:47:30;;;;;;;;;;;;;;;3.78;100.00;99974.00;5054518;28;19920;-73
2023/03/03 05:49:55;;;;;;;;;;;;;;;3.23;100.00;99977.56;5051374;28;19935;-73
2023/03/03 05:52:21;;;;;;;;;;;;;;;2.58;100.00;99966.47;5051122;28;19927;-73
2023/03/03 05:54:46;;;;;;;;;;;;;;;2.92;100.00;99993.28;5053446;28;19927;-74
2023/03/03 05:57:11;;;;;;;;;;;;;;;3.89;100.00;100031.88;5046672;28;20580;-73
2023/03/03 05:59:37;;;;;;;;;;;;;;;4.44;100.00;100046.91;5051704;28;20452;-73
2023/03/03 06:02:02;;;;;;;;;;;;;;;3.95;100.00;100021.78;5047469;28;20456;-73
2023/03/03 06:04:27;;;;;;;;;;;;;;;3.35;100.00;100010.81;5049096;28;20000;-73
2023/03/03 06:06:52;;;;;;;;;;;;;;;2.76;100.00;100004.06;5052266;28;19923;-73
2023/03/03 06:09:18;;;;;;;;;;;;;;;3.82;100.00;100055.59;5050984;28;20533;-73
2023/03/03 06:11:43;;;;;;;;;;;;;;;4.26;100.00;100055.22;5049658;28;19928;-73
2023/03/03 06:14:08;;;;;;;;;;;;;;;4.44;100.00;100046.91;5054087;28;19924;-73
2023/03/03 06:16:33;;;;;;;;;;;;;;;5.05;100.00;100047.44;5051238;28;21602;-73
2023/03/03 06:19:00;;;;;;;;;;;;;;;4.36;100.00;100024.75;5051145;28;19924;-73
2023/03/03 06:21:25;;;;;;;;;;;;;;;4.15;100.00;100020.28;5052716;28;20040;-73
2023/03/03 06:23:50;;;;;;;;;;;;;;;3.87;100.00;100014.03;5030995;28;19999;-73
2023/03/03 06:26:15;;;;;;;;;;;;;;;3.64;100.00;100018.84;5053530;28;19925;-73
2023/03/03 06:28:41;;;;;;;;;;;;;;;4.83;100.00;100046.41;5049012;28;19921;-73
2023/03/03 06:31:06;;;;;;;;;;;;;;;5.05;100.00;100026.16;5053533;28;20205;-73
2023/03/03 06:33:31;;;;;;;;;;;;;;;4.53;100.00;100016.38;5054755;28;19944;-73
2023/03/03 06:35:57;;;;;;;;;;;;;;;3.40;100.00;99996.50;5051879;28;19924;-73
2023/03/03 06:38:22;;;;;;;;;;;;;;;3.49;100.00;100018.63;5049497;28;19958;-73
2023/03/03 06:40:48;;;;;;;;;;;;;;;4.93;100.00;100055.84;5050320;28;20014;-73
2023/03/03 06:43:13;;;;;;;;;;;;;;;3.95;100.00;100027.72;5051493;28;20630;-74
2023/03/03 06:45:38;;;;;;;;;;;;;;;4.43;100.00;100030.75;5032789;28;19920;-73
2023/03/03 06:48:03;;;;;;;;;;;;;;;3.62;100.00;100027.31;5048301;28;19916;-73
2023/03/03 06:50:29;;;;;;;;;;;;;;;4.34;100.00;100040.88;5052233;28;19917;-73
2023/03/03 06:53:20;;;;;;;;;;;;;;;4.13;100.00;100028.78;5052118;28;20046;-73
2023/03/03 06:55:46;;;;;;;;;;;;;;;3.93;100.00;100018.34;5043686;28;19925;-73
2023/03/03 06:58:15;;;;;;;;;;;;;;;3.31;100.00;100015.03;5049559;28;19920;-73
2023/03/03 07:00:42;;;;;;;;;;;;;;;4.26;100.00;100055.22;5047250;28;19952;-73
2023/03/03 07:03:11;;;;;;;;;;;;;;;3.39;100.00;100037.19;5049310;28;20056;-73
2023/03/03 07:05:37;;;;;;;;;;;;;;;3.24;100.00;100041.25;5051662;28;19917;-73
2023/03/03 07:08:04;;;;;;;;;;;;;;;2.95;100.00;100056.06;5049544;28;19932;-73
2023/03/03 07:10:30;;;;;;;;;;;;;;;3.45;100.00;100090.75;5047588;28;19927;-73
2023/03/03 07:13:11;;;;;;;;;;;;;;;2.98;100.00;100089.19;5045680;28;20374;-74
2023/03/03 07:15:36;;;;;;;;;;;;;;;3.19;100.00;100103.94;5047472;28;19924;-75
2023/03/03 07:18:03;;;;;;;;;;;;;;;3.96;100.00;100130.50;5048625;28;19923;-74
2023/03/03 07:20:34;;;;;;;;;;;;;;;4.91;100.00;100157.09;5047948;28;19917;-73
2023/03/03 07:22:59;;;;;;;;;;;;;;;4.12;100.00;100113.72;5049056;28;19988;-74
2023/03/03 07:25:31;;;;;;;;;;;;;;;4.48;100.00;100120.06;5049301;28;19920;-74
2023/03/03 07:28:10;;;;;;;;;;;;;;;3.76;100.00;100102.22;5051316;28;19921;-74
2023/03/03 07:30:35;;;;;;;;;;;;;;;5.18;100.00;100137.75;5051818;28;19920;-75
2023/03/03 07:33:00;;;;;;;;;;;;;;;5.59;100.00;100121.88;5045339;28;19920;-75
2023/03/03 07:35:35;;;;;;;;;;;;;;;5.66;100.00;100095.50;5054039;28;19916;-75
2023/03/03 07:38:00;;;;;;;;;;;;;;;5.03;100.00;100055.06;5051490;28;19969;-75
2023/03/03 07:40:31;;;;;;;;;;;;;;;4.74;100.00;100059.94;5045083;28;19925;-75
2023/03/03 07:42:56;;;;;;;;;;;;;;;4.77;100.00;100056.59;5046068;28;19923;-75
2023/03/03 07:45:24;;;;;;;;;;;;;;;4.77;100.00;100052.31;5049124;28;19917;-75
2023/03/03 07:47:49;;;;;;;;;;;;;;;3.52;100.00;100051.81;5050885;28;19920;-75
2023/03/03 07:50:15;;;;;;;;;;;;;;;4.19;100.00;100082.34;5050838;28;19935;-73
2023/03/03 07:53:00;;;;;;;;;;;;;;;3.65;100.00;100088.47;5047999;28;19916;-75
2023/03/03 07:55:30;;;;;;;;;;;;;;;3.76;100.00;100105.63;5048399;28;19920;-74
2023/03/03 07:57:56;;;;;;;;;;;;;;;3.54;100.00;100106.19;5049636;28;20019;-74
2023/03/03 08:00:27;;;;;;;;;;;;;;;4.17;100.00;100120.59;5051394;28;20011;-73
2023/03/03 08:03:03;;;;;;;;;;;;;;;4.09;100.00;100112.00;5048889;28;19921;-77
2023/03/03 08:05:42;;;;;;;;;;;;;;;4.48;100.00;100125.19;5049782;28;19923;-75
2023/03/03 08:08:28;;;;;;;;;;;;;;;4.83;100.00;100138.28;5047112;28;20796;-75
2023/03/03 08:10:54;;;;;;;;;;;;;;;4.17;100.00;100112.94;5051283;28;19925;-75
2023/03/03 08:13:22;;;;;;;;;;;;;;;3.76;100.00;100108.19;5050812;28;20457;-75
2023/03/03 08:16:07;;;;;;;;;;;;;;;3.80;100.00;100113.31;5050369;28;19973;-75
2023/03/03 08:18:39;;;;;;;;;;;;;;;3.20;100.00;100113.31;5014855;28;19916;-76
2023/03/03 08:21:15;;;;;;;;;;;;;;;3.46;100.00;100140.84;5046356;28;19917;-76
2023/03/03 08:23:40;;;;;;;;;;;;;;;3.43;100.00;100156.09;5045626;28;19928;-75
2023/03/03 08:26:06;;;;;;;;;;;;;;;1.79;100.00;100139.47;5055281;28;19920;-76
2023/03/03 08:28:31;;;;;;;;;;;;;;;3.56;100.00;100206.38;5056503;28;19966;-75
2023/03/03 08:30:56;;;;;;;;;;;;;;;4.26;100.00;100226.91;5049339;28;19924;-75
2023/03/03 08:33:21;;;;;;;;;;;;;;;2.14;100.00;100176.63;5048301;28;19916;-75
2023/03/03 08:35:47;;;;;;;;;;;;;;;3.21;100.00;100219.38;5043699;28;20590;-76
2023/03/03 08:38:13;;;;;;;;;;;;;;;3.16;100.00;100220.97;5044779;28;20509;-75
2023/03/03 08:40:38;;;;;;;;;;;;;;;3.33;100.00;100234.88;5044646;28;20050;-75
2023/03/03 08:43:03;;;;;;;;;;;;;;;3.32;100.00;100238.22;5051450;28;20437;-75
2023/03/03 08:45:29;;;;;;;;;;;;;;;2.85;100.00;100230.63;5049860;28;19971;-75
2023/03/03 08:47:54;;;;;;;;;;;;;;;3.78;100.00;100254.25;5053589;28;19917;-75
2023/03/03 08:50:19;;;;;;;;;;;;;;;3.57;100.00;100248.84;5051616;28;19921;-75
2023/03/03 08:52:45;;;;;;;;;;;;;;;3.68;100.00;100242.22;5051025;28;19989;-75
2023/03/03 08:55:10;;;;;;;;;;;;;;;3.48;100.00;100233.41;5048694;28;19921;-75
2023/03/03 08:57:35;;;;;;;;;;;;;;;4.14;100.00;100230.16;5052198;28;19920;-75
2023/03/03 09:00:00;;;;;;;;;;;;;;;4.96;100.00;100244.78;5050213;28;19917;-75
2023/03/03 09:02:26;;;;;;;;;;;;;;;3.96;100.00;100200.16;5057028;28;19916;-75
2023/03/03 09:04:51;;;;;;;;;;;;;;;3.62;100.00;100183.53;5056278;28;19920;-75
2023/03/03 09:07:16;;;;;;;;;;;;;;;4.55;100.00;100209.44;5058718;28;19951;-75
2023/03/03 09:09:41;;;;;;;;;;;;;;;5.15;100.00;100206.66;5054133;28;19923;-75
2023/03/03 09:12:17;;;;;;;;;;;;;;;5.26;100.00;100184.63;5053094;28;19977;-76
2023/03/03 09:14:42;;;;;;;;;;;;;;;4.25;100.00;100138.53;5053982;28;19924;-76
2023/03/03 09:17:26;;;;;;;;;;;;;;;5.17;100.00;100153.91;5054084;28;19966;-76
2023/03/03 09:19:52;;;;;;;;;;;;;;;5.70;100.00;100137.25;5048945;28;19959;-76
2023/03/03 09:22:22;;;;;;;;;;;;;;;5.20;100.00;100108.84;5052231;28;19923;-76
2023/03/03 09:24:48;;;;;;;;;;;;;;;4.36;100.00;100095.31;5055766;28;19916;-76
2023/03/03 09:27:33;;;;;;;;;;;;;;;4.39;100.00;100113.19;5056039;28;20147;-76
2023/03/03 09:30:19;;;;;;;;;;;;;;;4.51;100.00;100128.59;5053062;28;19971;-80
2023/03/03 09:32:44;;;;;;;;;;;;;;;4.83;100.00;100143.38;5049208;28;19991;-79
2023/03/03 09:35:28;;;;;;;;;;;;;;;5.20;100.00;100146.25;5052917;28;20351;-76
2023/03/03 09:37:53;;;;;;;;;;;;;;;5.77;100.00;100147.53;5055835;28;19936;-75
2023/03/03 09:40:43;;;;;;;;;;;;;;;5.03;100.00;100111.22;5051914;28;20008;-75
2023/03/03 09:43:08;;;;;;;;;;;;;;;5.50;100.00;100111.59;5048175;28;19916;-74
2023/03/03 09:45:39;;;;;;;;;;;;;;;4.77;100.00;100094.88;5055612;28;19921;-74
2023/03/03 09:48:04;;;;;;;;;;;;;;;4.07;100.00;100080.53;5053231;28;19916;-74
2023/03/03 09:50:45;;;;;;;;;;;;;;;4.41;100.00;100111.50;5057986;28;19923;-74
2023/03/03 09:53:27;;;;;;;;;;;;;;;4.72;100.00;100134.75;5055304;28;19980;-75
2023/03/03 09:55:53;;;;;;;;;;;;;;;5.85;100.00;100140.75;5052570;28;19927;-75
2023/03/03 09:58:34;;;;;;;;;;;;;;;5.61;100.00;100109.94;5053450;28;20294;-75
2023/03/03 10:01:02;;;;;;;;;;;;;;;6.14;100.00;100111.97;5051976;28;20340;-75
2023/03/03 10:03:49;;;;;;;;;;;;;;;5.58;100.00;100077.56;5055653;28;20414;-74
2023/03/03 10:06:21;;;;;;;;;;;;;;;6.50;100.00;100089.91;5052243;28;20363;-75
2023/03/03 10:08:46;;;;;;;;;;;;;;;5.71;100.00;100050.38;5047805;28;19920;-75
2023/03/03 10:11:14;;;;;;;;;;;;;;;4.40;100.00;100030.72;5053299;28;19927;-74
2023/03/03 10:13:42;;;;;;;;;;;;;;;4.78;100.00;100069.34;5053967;28;19924;-74
2023/03/03 10:16:07;;;;;;;;;;;;;;;4.36;100.00;100069.81;5047328;28;19963;-74
2023/03/03 10:18:35;;;;;;;;;;;;;;;4.03;100.00;100075.38;5048817;28;19990;-74
2023/03/03 10:21:04;;;;;;;;;;;;;;;4.85;100.00;100105.97;5050598;28;19920;-74
2023/03/03 10:23:45;;;;;;;;;;;;;;;4.53;100.00;100119.28;5040465;28;20023;-74
2023/03/03 10:26:16;;;;;;;;;;;;;;;5.30;100.00;100122.53;5044532;28;19943;-74
2023/03/03 10:28:56;;;;;;;;;;;;;;;6.10;100.00;100130.69;5042177;28;20406;-74
2023/03/03 10:31:23;;;;;;;;;;;;;;;6.42;100.00;100104.38;5049534;28;19924;-75
2023/03/03 10:33:52;;;;;;;;;;;;;;;5.81;100.00;100077.66;5043306;28;19999;-74
2023/03/03 10:36:26;;;;;;;;;;;;;;;6.02;100.00;100071.84;5049701;28;19924;-74
2023/03/03 10:38:54;;;;;;;;;;;;;;;6.13;100.00;100069.31;5047805;28;19920;-75
2023/03/03 10:41:20;;;;;;;;;;;;;;;7.54;100.00;100064.22;5053202;28;20375;-74
2023/03/03 10:44:04;;;;;;;;;;;;;;;5.30;100.00;100028.03;5053893;28;20030;-74
2023/03/03 10:46:45;;;;;;;;;;;;;;;5.51;100.00;100039.19;5055556;28;19969;-74
2023/03/03 10:49:29;;;;;;;;;;;;;;;6.85;100.00;100046.41;5044585;28;20438;-74
2023/03/03 10:51:59;;;;;;;;;;;;;;;6.02;100.00;100022.38;5051374;28;19921;-78
2023/03/03 10:54:43;;;;;;;;;;;;;;;6.27;100.00;100026.75;5046394;28;19920;-75
2023/03/03 10:57:20;;;;;;;;;;;;;;;7.04;100.00;100021.63;5049999;28;19921;-75
2023/03/03 11:00:01;;;;;;;;;;;;;;;6.42;100.00;100004.56;5049554;28;20410;-76
2023/03/03 11:02:45;;;;;;;;;;;;;;;6.21;100.00;99990.91;5050884;28;19916;-75
2023/03/03 11:05:10;;;;;;;;;;;;;;;6.99;100.00;100002.84;5051467;28;20391;-75
2023/03/03 11:07:43;;;;;;;;;;;;;;;6.57;100.00;99986.69;5052695;28;19982;-75
2023/03/03 11:10:11;;;;;;;;;;;;;;;6.53;100.00;100004.59;5048355;28;19923;-75
2023/03/03 11:12:40;;;;;;;;;;;;;;;5.72;100.00;99997.56;5056108;28;19943;-75
2023/03/03 11:15:13;;;;;;;;;;;;;;;6.06;100.00;100016.44;5047159;28;19924;-75
2023/03/03 11:17:50;;;;;;;;;;;;;;;5.97;100.00;100011.31;5050131;28;19921;-76
2023/03/03 11:20:34;;;;;;;;;;;;;;;6.14;100.00;100025.00;5050062;28;19924;-75
2023/03/03 11:23:04;;;;;;;;;;;;;;;7.08;100.00;100019.94;5055417;28;19982;-75
2023/03/03 11:25:31;;;;;;;;;;;;;;;6.13;100.00;99991.75;5051228;28;20401;-76
2023/03/03 11:28:00;;;;;;;;;;;;;;;4.92;100.00;99990.31;5054043;28;19920;-75
2023/03/03 11:30:40;;;;;;;;;;;;;;;5.96;100.00;100002.78;5042340;28;20474;-76
2023/03/03 11:33:08;;;;;;;;;;;;;;;7.92;100.00;100006.84;5045419;28;19921;-75
2023/03/03 11:35:40;;;;;;;;;;;;;;;6.23;100.00;99968.75;5054961;28;19913;-76
2023/03/03 11:38:20;;;;;;;;;;;;;;;7.68;100.00;99973.63;5051511;28;20016;-75
2023/03/03 11:40:47;;;;;;;;;;;;;;;7.02;100.00;99973.81;5048840;28;19994;-76
2023/03/03 11:43:16;;;;;;;;;;;;;;;5.92;100.00;99972.06;5049096;28;19920;-76
2023/03/03 11:45:42;;;;;;;;;;;;;;;5.03;100.00;99981.03;5050058;28;19920;-76
2023/03/03 11:48:18;;;;;;;;;;;;;;;5.32;100.00;99995.69;5031628;28;19920;-76
2023/03/03 11:51:13;;;;;;;;;;;;;;;6.91;100.00;100004.56;5032850;28;19978;-75
2023/03/03 11:53:40;;;;;;;;;;;;;;;6.86;100.00;99958.47;5036383;28;20299;-75
2023/03/03 11:56:28;;;;;;;;;;;;;;;5.67;100.00;99956.66;5049525;28;19974;-75
2023/03/03 11:59:05;;;;;;;;;;;;;;;6.06;100.00;99962.75;5042285;28;19917;-76
2023/03/03 12:01:39;;;;;;;;;;;;;;;7.61;100.00;99979.63;5050096;28;20555;-75
2023/03/03 12:04:21;;;;;;;;;;;;;;;7.10;100.00;99943.94;5048976;28;20571;-74
2023/03/03 12:06:53;;;;;;;;;;;;;;;5.39;100.00;99948.88;5047005;28;20003;-75
2023/03/03 12:09:18;;;;;;;;;;;;;;;5.77;100.00;99972.84;5046766;28;20032;-74
2023/03/03 12:11:52;;;;;;;;;;;;;;;6.46;100.00;99983.25;5047891;28;19995;-75
2023/03/03 12:14:20;;;;;;;;;;;;;;;5.45;100.00;99977.03;5051266;28;20313;-74
2023/03/03 12:16:45;;;;;;;;;;;;;;;5.69;100.00;99990.72;5051817;28;19929;-74
2023/03/03 12:19:19;;;;;;;;;;;;;;;7.12;100.00;99994.31;5049619;28;19924;-75
2023/03/03 12:21:57;;;;;;;;;;;;;;;7.66;100.00;99972.75;5048147;28;19916;-75
2023/03/03 12:24:28;;;;;;;;;;;;;;;6.00;100.00;99965.31;5048536;28;19916;-75
2023/03/03 12:27:19;;;;;;;;;;;;;;;7.79;100.00;99971.84;5053179;28;20969;-75
2023/03/03 12:29:48;;;;;;;;;;;;;;;5.60;100.00;99911.50;5014439;28;19927;-74
2023/03/03 12:32:20;;;;;;;;;;;;;;;5.53;100.00;99930.22;5048991;28;19940;-75
2023/03/03 12:35:17;;;;;;;;;;;;;;;6.22;100.00;99936.31;5048523;28;19999;-75
2023/03/03 12:38:01;;;;;;;;;;;;;;;7.27;100.00;99954.97;5028761;28;20461;-74
2023/03/03 12:40:47;;;;;;;;;;;;;;;7.73;100.00;99926.59;5050360;28;19924;-75
2023/03/03 12:43:17;;;;;;;;;;;;;;;7.35;100.00;99892.63;5053654;28;20274;-75
2023/03/03 12:45:45;;;;;;;;;;;;;;;7.46;100.00;99885.72;5050714;28;19950;-74